sensor_id;sensor_type;location;lat;lon;timestamp;pressure;altitude;pressure_sealevel;temperature;humidity
76128;BME280;64873;50.102;14.434;2023-01-19T00:00:40;98050.84;;;1.56;69.22
76128;BME280;64873;50.102;14.434;2023-01-19T00:03:06;98061.63;;;1.40;69.58
76128;BME280;64873;50.102;14.434;2023-01-19T00:05:40;98066.78;;;1.48;69.40
76128;BME280;64873;50.102;14.434;2023-01-19T00:08:06;98062.75;;;1.52;68.25
76128;BME280;64873;50.102;14.434;2023-01-19T00:10:39;98066.41;;;1.51;68.83
76128;BME280;64873;50.102;14.434;2023-01-19T00:13:05;98075.84;;;1.45;69.04
76128;BME280;64873;50.102;14.434;2023-01-19T00:15:31;98051.59;;;1.28;68.91
76128;BME280;64873;50.102;14.434;2023-01-19T00:17:56;98057.63;;;1.22;69.67
76128;BME280;64873;50.102;14.434;2023-01-19T00:20:21;98070.22;;;1.27;69.50
76128;BME280;64873;50.102;14.434;2023-01-19T00:22:47;98064.81;;;1.14;69.55
76128;BME280;64873;50.102;14.434;2023-01-19T00:25:15;98064.00;;;1.13;70.17
76128;BME280;64873;50.102;14.434;2023-01-19T00:27:41;98064.00;;;1.13;70.15
76128;BME280;64873;50.102;14.434;2023-01-19T00:30:11;98067.25;;;1.15;70.19
76128;BME280;64873;50.102;14.434;2023-01-19T00:32:36;98056.53;;;0.95;70.25
76128;BME280;64873;50.102;14.434;2023-01-19T00:35:02;98072.75;;;0.99;71.11
76128;BME280;64873;50.102;14.434;2023-01-19T00:37:27;98078.75;;;0.93;71.00
76128;BME280;64873;50.102;14.434;2023-01-19T00:39:52;98082.75;;;0.89;71.01
76128;BME280;64873;50.102;14.434;2023-01-19T00:42:18;98069.69;;;0.80;71.18
76128;BME280;64873;50.102;14.434;2023-01-19T00:45:01;98077.41;;;0.82;71.24
76128;BME280;64873;50.102;14.434;2023-01-19T00:47:27;98059.69;;;0.55;72.09
76128;BME280;64873;50.102;14.434;2023-01-19T00:49:52;98073.53;;;0.63;72.06
76128;BME280;64873;50.102;14.434;2023-01-19T00:52:17;98086.94;;;0.68;71.98
76128;BME280;64873;50.102;14.434;2023-01-19T00:54:43;98090.50;;;0.61;72.65
76128;BME280;64873;50.102;14.434;2023-01-19T00:57:09;98081.59;;;0.47;72.11
76128;BME280;64873;50.102;14.434;2023-01-19T00:59:34;98114.41;;;0.51;72.79
76128;BME280;64873;50.102;14.434;2023-01-19T01:01:59;98111.44;;;0.54;72.72
76128;BME280;64873;50.102;14.434;2023-01-19T01:04:25;98120.31;;;0.53;72.68
76128;BME280;64873;50.102;14.434;2023-01-19T01:06:50;98117.03;;;0.51;72.11
76128;BME280;64873;50.102;14.434;2023-01-19T01:09:15;98126.47;;;0.45;72.44
76128;BME280;64873;50.102;14.434;2023-01-19T01:11:41;98108.34;;;0.36;71.41
76128;BME280;64873;50.102;14.434;2023-01-19T01:14:08;98134.72;;;0.42;72.52
76128;BME280;64873;50.102;14.434;2023-01-19T01:16:34;98116.69;;;0.39;72.05
76128;BME280;64873;50.102;14.434;2023-01-19T01:19:00;98110.78;;;0.22;72.35
76128;BME280;64873;50.102;14.434;2023-01-19T01:21:25;98126.09;;;0.19;72.49
76128;BME280;64873;50.102;14.434;2023-01-19T01:23:51;98145.38;;;0.26;72.70
76128;BME280;64873;50.102;14.434;2023-01-19T01:26:16;98132.22;;;0.11;72.65
76128;BME280;64873;50.102;14.434;2023-01-19T01:28:41;98159.88;;;0.22;72.83
76128;BME280;64873;50.102;14.434;2023-01-19T01:31:07;98141.47;;;0.07;73.22
76128;BME280;64873;50.102;14.434;2023-01-19T01:33:32;98167.03;;;0.13;72.56
76128;BME280;64873;50.102;14.434;2023-01-19T01:35:58;98174.25;;;0.11;72.49
76128;BME280;64873;50.102;14.434;2023-01-19T01:38:23;98180.56;;;0.02;73.21
76128;BME280;64873;50.102;14.434;2023-01-19T01:40:48;98162.94;;;-0.12;73.07
76128;BME280;64873;50.102;14.434;2023-01-19T01:43:16;98181.91;;;-0.02;73.58
76128;BME280;64873;50.102;14.434;2023-01-19T01:45:41;98187.69;;;-0.07;73.39
76128;BME280;64873;50.102;14.434;2023-01-19T01:50:51;98178.44;;;-0.17;72.76
76128;BME280;64873;50.102;14.434;2023-01-19T01:53:38;98175.81;;;-0.17;72.54
76128;BME280;64873;50.102;14.434;2023-01-19T01:56:09;98195.75;;;-0.08;72.23
76128;BME280;64873;50.102;14.434;2023-01-19T01:58:37;98209.88;;;-0.09;72.83
76128;BME280;64873;50.102;14.434;2023-01-19T02:01:03;98182.09;;;-0.27;73.83
76128;BME280;64873;50.102;14.434;2023-01-19T02:03:48;98210.19;;;-0.12;73.19
76128;BME280;64873;50.102;14.434;2023-01-19T02:06:14;98211.59;;;-0.02;72.54
76128;BME280;64873;50.102;14.434;2023-01-19T02:08:48;98194.50;;;-0.20;73.54
76128;BME280;64873;50.102;14.434;2023-01-19T02:11:34;98216.94;;;0.28;76.39
76128;BME280;64873;50.102;14.434;2023-01-19T02:14:19;98212.22;;;0.23;73.64
76128;BME280;64873;50.102;14.434;2023-01-19T02:16:45;98208.13;;;0.06;72.65
76128;BME280;64873;50.102;14.434;2023-01-19T02:19:15;98216.56;;;0.16;71.65
76128;BME280;64873;50.102;14.434;2023-01-19T02:21:55;98199.94;;;0.01;72.15
76128;BME280;64873;50.102;14.434;2023-01-19T02:24:24;98215.53;;;0.03;72.26
76128;BME280;64873;50.102;14.434;2023-01-19T02:26:50;98228.47;;;0.04;72.51
76128;BME280;64873;50.102;14.434;2023-01-19T02:29:19;98218.25;;;0.09;72.67
76128;BME280;64873;50.102;14.434;2023-01-19T02:31:46;98202.56;;;0.01;72.09
76128;BME280;64873;50.102;14.434;2023-01-19T02:34:14;98208.16;;;-0.02;73.09
76128;BME280;64873;50.102;14.434;2023-01-19T02:36:55;98211.84;;;-0.11;73.67
76128;BME280;64873;50.102;14.434;2023-01-19T02:39:27;98206.25;;;-0.08;73.54
76128;BME280;64873;50.102;14.434;2023-01-19T02:41:57;98213.63;;;0.11;73.27
76128;BME280;64873;50.102;14.434;2023-01-19T02:44:26;98209.75;;;0.07;72.43
76128;BME280;64873;50.102;14.434;2023-01-19T02:46:53;98213.00;;;0.09;72.78
76128;BME280;64873;50.102;14.434;2023-01-19T02:49:19;98205.63;;;0.28;72.08
76128;BME280;64873;50.102;14.434;2023-01-19T02:51:44;98190.00;;;0.11;71.87
76128;BME280;64873;50.102;14.434;2023-01-19T02:54:25;98211.97;;;0.18;72.67
76128;BME280;64873;50.102;14.434;2023-01-19T02:57:25;98213.47;;;0.36;72.38
76128;BME280;64873;50.102;14.434;2023-01-19T03:05:43;98218.91;;;0.49;71.16
76128;BME280;64873;50.102;14.434;2023-01-19T03:19:09;98202.63;;;-0.07;72.70
76128;BME280;64873;50.102;14.434;2023-01-19T03:21:38;98208.47;;;-0.20;73.76
76128;BME280;64873;50.102;14.434;2023-01-19T03:24:07;98218.97;;;-0.20;74.59
76128;BME280;64873;50.102;14.434;2023-01-19T03:26:45;98206.03;;;-0.30;74.59
76128;BME280;64873;50.102;14.434;2023-01-19T03:29:13;98202.16;;;-0.34;74.63
76128;BME280;64873;50.102;14.434;2023-01-19T03:31:42;98207.66;;;-0.20;74.26
76128;BME280;64873;50.102;14.434;2023-01-19T03:34:11;98203.59;;;-0.31;75.18
76128;BME280;64873;50.102;14.434;2023-01-19T03:36:47;98202.16;;;-0.34;74.72
76128;BME280;64873;50.102;14.434;2023-01-19T03:39:20;98218.25;;;-0.37;75.73
76128;BME280;64873;50.102;14.434;2023-01-19T03:41:47;98212.28;;;-0.31;75.06
76128;BME280;64873;50.102;14.434;2023-01-19T03:44:14;98207.41;;;-0.34;75.29
76128;BME280;64873;50.102;14.434;2023-01-19T03:46:40;98210.91;;;-0.18;75.30
76128;BME280;64873;50.102;14.434;2023-01-19T03:49:06;98213.59;;;-0.27;74.64
76128;BME280;64873;50.102;14.434;2023-01-19T03:51:37;98199.22;;;-0.39;74.77
76128;BME280;64873;50.102;14.434;2023-01-19T03:54:06;98219.22;;;-0.38;75.32
76128;BME280;64873;50.102;14.434;2023-01-19T03:56:32;98218.53;;;-0.32;74.92
76128;BME280;64873;50.102;14.434;2023-01-19T03:58:57;98214.28;;;-0.33;74.81
76128;BME280;64873;50.102;14.434;2023-01-19T04:01:23;98218.41;;;-0.38;75.07
76128;BME280;64873;50.102;14.434;2023-01-19T04:03:49;98215.47;;;-0.35;74.33
76128;BME280;64873;50.102;14.434;2023-01-19T04:06:16;98215.31;;;-0.42;74.71
76128;BME280;64873;50.102;14.434;2023-01-19T04:08:41;98219.59;;;-0.41;75.35
76128;BME280;64873;50.102;14.434;2023-01-19T04:11:07;98211.19;;;-0.36;74.14
76128;BME280;64873;50.102;14.434;2023-01-19T04:13:33;98218.53;;;-0.32;73.54
76128;BME280;64873;50.102;14.434;2023-01-19T04:15:59;98222.56;;;-0.21;74.42
76128;BME280;64873;50.102;14.434;2023-01-19T04:18:26;98212.06;;;-0.44;74.09
76128;BME280;64873;50.102;14.434;2023-01-19T04:20:52;98223.28;;;-0.27;73.38
76128;BME280;64873;50.102;14.434;2023-01-19T04:23:18;98226.47;;;-0.40;74.56
76128;BME280;64873;50.102;14.434;2023-01-19T04:25:43;98235.91;;;-0.31;74.13
76128;BME280;64873;50.102;14.434;2023-01-19T04:28:09;98232.72;;;-0.41;73.94
76128;BME280;64873;50.102;14.434;2023-01-19T04:30:34;98229.50;;;-0.59;74.37
76128;BME280;64873;50.102;14.434;2023-01-19T04:32:59;98219.38;;;-0.62;74.19
76128;BME280;64873;50.102;14.434;2023-01-19T04:35:25;98227.88;;;-0.60;74.19
76128;BME280;64873;50.102;14.434;2023-01-19T04:37:50;98242.63;;;-0.59;73.76
76128;BME280;64873;50.102;14.434;2023-01-19T04:40:16;98234.50;;;-0.72;73.78
76128;BME280;64873;50.102;14.434;2023-01-19T04:42:42;98229.06;;;-0.71;73.54
76128;BME280;64873;50.102;14.434;2023-01-19T04:45:09;98231.59;;;-0.86;74.52
76128;BME280;64873;50.102;14.434;2023-01-19T04:47:35;98252.22;;;-0.74;73.65
76128;BME280;64873;50.102;14.434;2023-01-19T04:50:01;98259.41;;;-0.76;74.20
76128;BME280;64873;50.102;14.434;2023-01-19T04:52:33;98256.91;;;-0.62;72.78
76128;BME280;64873;50.102;14.434;2023-01-19T04:55:02;98248.53;;;-0.57;71.25
76128;BME280;64873;50.102;14.434;2023-01-19T04:57:29;98257.09;;;-0.71;72.63
76128;BME280;64873;50.102;14.434;2023-01-19T04:59:55;98261.34;;;-0.62;72.06
76128;BME280;64873;50.102;14.434;2023-01-19T05:02:21;98260.66;;;-0.56;71.65
76128;BME280;64873;50.102;14.434;2023-01-19T05:04:47;98254.78;;;-0.66;71.97
76128;BME280;64873;50.102;14.434;2023-01-19T05:07:12;98270.88;;;-0.69;71.06
76128;BME280;64873;50.102;14.434;2023-01-19T05:09:37;98267.41;;;-0.62;72.19
76128;BME280;64873;50.102;14.434;2023-01-19T05:12:03;98254.47;;;-0.63;71.44
76128;BME280;64873;50.102;14.434;2023-01-19T05:14:28;98280.69;;;-0.63;72.60
76128;BME280;64873;50.102;14.434;2023-01-19T05:16:54;98281.50;;;-0.63;72.65
76128;BME280;64873;50.102;14.434;2023-01-19T05:19:19;98267.59;;;-0.71;72.68
76128;BME280;64873;50.102;14.434;2023-01-19T05:21:45;98265.84;;;-0.79;72.42
76128;BME280;64873;50.102;14.434;2023-01-19T05:24:11;98248.31;;;-0.87;71.92
76128;BME280;64873;50.102;14.434;2023-01-19T05:26:36;98260.25;;;-0.76;71.96
76128;BME280;64873;50.102;14.434;2023-01-19T05:29:02;98271.56;;;-0.75;72.86
76128;BME280;64873;50.102;14.434;2023-01-19T05:31:27;98272.72;;;-0.78;72.21
76128;BME280;64873;50.102;14.434;2023-01-19T05:33:53;98276.69;;;-0.82;72.71
76128;BME280;64873;50.102;14.434;2023-01-19T05:36:18;98282.09;;;-0.92;74.08
76128;BME280;64873;50.102;14.434;2023-01-19T05:38:44;98286.03;;;-0.88;72.67
76128;BME280;64873;50.102;14.434;2023-01-19T05:41:09;98286.00;;;-0.79;71.82
76128;BME280;64873;50.102;14.434;2023-01-19T05:43:34;98273.88;;;-0.81;72.58
76128;BME280;64873;50.102;14.434;2023-01-19T05:46:02;98273.06;;;-0.81;72.23
76128;BME280;64873;50.102;14.434;2023-01-19T05:48:28;98295.19;;;-0.84;71.79
76128;BME280;64873;50.102;14.434;2023-01-19T05:50:58;98279.47;;;-1.00;71.79
76128;BME280;64873;50.102;14.434;2023-01-19T05:53:23;98305.19;;;-0.87;72.81
76128;BME280;64873;50.102;14.434;2023-01-19T05:55:49;98282.09;;;-0.92;71.69
76128;BME280;64873;50.102;14.434;2023-01-19T05:58:15;98317.16;;;-0.85;72.30
76128;BME280;64873;50.102;14.434;2023-01-19T06:00:41;98315.69;;;-0.95;72.42
76128;BME280;64873;50.102;14.434;2023-01-19T06:03:06;98308.34;;;-1.08;72.37
76128;BME280;64873;50.102;14.434;2023-01-19T06:05:32;98326.31;;;-0.81;71.19
76128;BME280;64873;50.102;14.434;2023-01-19T06:07:58;98325.31;;;-0.71;74.72
76128;BME280;64873;50.102;14.434;2023-01-19T06:10:23;98315.56;;;-0.94;72.62
76128;BME280;64873;50.102;14.434;2023-01-19T06:12:49;98307.50;;;-0.92;71.63
76128;BME280;64873;50.102;14.434;2023-01-19T06:15:15;98333.38;;;-0.89;71.56
76128;BME280;64873;50.102;14.434;2023-01-19T06:17:41;98317.50;;;-0.96;72.86
76128;BME280;64873;50.102;14.434;2023-01-19T06:20:08;98336.03;;;-0.97;71.66
76128;BME280;64873;50.102;14.434;2023-01-19T06:22:33;98337.81;;;-0.90;70.94
76128;BME280;64873;50.102;14.434;2023-01-19T06:24:58;98331.91;;;-1.00;71.47
76128;BME280;64873;50.102;14.434;2023-01-19T06:27:24;98348.66;;;-1.09;71.06
76128;BME280;64873;50.102;14.434;2023-01-19T06:29:49;98346.50;;;-0.89;70.36
76128;BME280;64873;50.102;14.434;2023-01-19T06:32:15;98327.03;;;-1.03;70.30
76128;BME280;64873;50.102;14.434;2023-01-19T06:34:41;98335.19;;;-0.90;70.15
76128;BME280;64873;50.102;14.434;2023-01-19T06:37:10;98353.06;;;-1.01;70.04
76128;BME280;64873;50.102;14.434;2023-01-19T06:39:36;98353.25;;;-1.03;70.95
76128;BME280;64873;50.102;14.434;2023-01-19T06:42:05;98359.66;;;-1.05;70.42
76128;BME280;64873;50.102;14.434;2023-01-19T06:44:30;98347.16;;;-1.12;70.58
76128;BME280;64873;50.102;14.434;2023-01-19T06:46:56;98357.66;;;-1.20;71.01
76128;BME280;64873;50.102;14.434;2023-01-19T06:49:21;98358.81;;;-1.06;70.44
76128;BME280;64873;50.102;14.434;2023-01-19T06:51:46;98378.94;;;-1.07;69.73
76128;BME280;64873;50.102;14.434;2023-01-19T06:54:12;98371.75;;;-0.96;69.90
76128;BME280;64873;50.102;14.434;2023-01-19T06:56:37;98363.06;;;-0.97;69.24
76128;BME280;64873;50.102;14.434;2023-01-19T06:59:03;98381.91;;;-1.01;69.28
76128;BME280;64873;50.102;14.434;2023-01-19T07:01:28;98370.59;;;-1.18;70.55
76128;BME280;64873;50.102;14.434;2023-01-19T07:03:53;98371.09;;;-1.15;70.89
76128;BME280;64873;50.102;14.434;2023-01-19T07:06:19;98381.25;;;-1.12;70.99
76128;BME280;64873;50.102;14.434;2023-01-19T07:08:44;98388.28;;;-1.12;71.39
76128;BME280;64873;50.102;14.434;2023-01-19T07:11:11;98383.88;;;-1.03;69.72
76128;BME280;64873;50.102;14.434;2023-01-19T07:13:38;98373.56;;;-1.29;70.96
76128;BME280;64873;50.102;14.434;2023-01-19T07:16:09;98380.59;;;-1.14;70.55
76128;BME280;64873;50.102;14.434;2023-01-19T07:18:36;98369.94;;;-1.12;69.79
76128;BME280;64873;50.102;14.434;2023-01-19T07:21:02;98391.41;;;-1.09;70.59
76128;BME280;64873;50.102;14.434;2023-01-19T07:23:28;98385.19;;;-1.16;70.83
76128;BME280;64873;50.102;14.434;2023-01-19T07:25:58;98387.34;;;-1.11;70.75
76128;BME280;64873;50.102;14.434;2023-01-19T07:28:28;98369.94;;;-1.12;70.12
76128;BME280;64873;50.102;14.434;2023-01-19T07:30:53;98372.91;;;-1.23;69.93
76128;BME280;64873;50.102;14.434;2023-01-19T07:33:20;98394.53;;;-1.05;69.98
76128;BME280;64873;50.102;14.434;2023-01-19T07:35:50;98397.47;;;-1.08;70.08
76128;BME280;64873;50.102;14.434;2023-01-19T07:38:17;98397.81;;;-1.11;70.80
76128;BME280;64873;50.102;14.434;2023-01-19T07:40:43;98407.00;;;-1.15;70.51
76128;BME280;64873;50.102;14.434;2023-01-19T07:43:08;98410.09;;;-1.20;70.89
76128;BME280;64873;50.102;14.434;2023-01-19T07:45:34;98418.78;;;-1.19;70.13
76128;BME280;64873;50.102;14.434;2023-01-19T07:48:00;98426.16;;;-1.15;70.72
76128;BME280;64873;50.102;14.434;2023-01-19T07:50:26;98409.94;;;-1.26;71.39
76128;BME280;64873;50.102;14.434;2023-01-19T07:52:54;98402.88;;;-1.34;70.57
76128;BME280;64873;50.102;14.434;2023-01-19T07:55:20;98429.94;;;-1.17;70.20
76128;BME280;64873;50.102;14.434;2023-01-19T07:57:51;98417.44;;;-1.23;70.83
76128;BME280;64873;50.102;14.434;2023-01-19T08:00:18;98428.28;;;-1.10;70.15
76128;BME280;64873;50.102;14.434;2023-01-19T08:02:47;98418.78;;;-1.27;71.03
76128;BME280;64873;50.102;14.434;2023-01-19T08:05:16;98411.72;;;-1.19;70.58
76128;BME280;64873;50.102;14.434;2023-01-19T08:07:41;98432.03;;;-1.13;69.93
76128;BME280;64873;50.102;14.434;2023-01-19T08:10:08;98433.84;;;-1.13;70.64
76128;BME280;64873;50.102;14.434;2023-01-19T08:12:33;98443.34;;;-1.12;70.14
76128;BME280;64873;50.102;14.434;2023-01-19T08:14:59;98441.53;;;-1.12;70.28
76128;BME280;64873;50.102;14.434;2023-01-19T08:17:24;98437.44;;;-1.06;69.62
76128;BME280;64873;50.102;14.434;2023-01-19T08:19:49;98441.72;;;-1.13;69.45
76128;BME280;64873;50.102;14.434;2023-01-19T08:22:15;98429.44;;;-1.21;68.94
76128;BME280;64873;50.102;14.434;2023-01-19T08:24:40;98417.47;;;-1.15;69.99
76128;BME280;64873;50.102;14.434;2023-01-19T08:27:06;98443.19;;;-1.02;69.65
76128;BME280;64873;50.102;14.434;2023-01-19T08:29:34;98435.97;;;-1.09;69.83
76128;BME280;64873;50.102;14.434;2023-01-19T08:31:59;98425.34;;;-1.15;69.19
76128;BME280;64873;50.102;14.434;2023-01-19T08:34:27;98446.00;;;-1.04;68.42
76128;BME280;64873;50.102;14.434;2023-01-19T08:36:55;98432.84;;;-1.12;69.97
76128;BME280;64873;50.102;14.434;2023-01-19T08:39:20;98443.38;;;-1.04;69.91
76128;BME280;64873;50.102;14.434;2023-01-19T08:41:48;98447.78;;;-0.96;68.93
76128;BME280;64873;50.102;14.434;2023-01-19T08:44:14;98435.50;;;-1.04;69.42
76128;BME280;64873;50.102;14.434;2023-01-19T08:46:40;98445.00;;;-0.95;69.18
76128;BME280;64873;50.102;14.434;2023-01-19T08:49:05;98421.09;;;-1.16;68.92
76128;BME280;64873;50.102;14.434;2023-01-19T08:51:31;98456.63;;;-0.89;68.61
76128;BME280;64873;50.102;14.434;2023-01-19T08:53:56;98448.13;;;-0.99;69.03
76128;BME280;64873;50.102;14.434;2023-01-19T08:56:22;98432.06;;;-1.04;69.24
76128;BME280;64873;50.102;14.434;2023-01-19T08:58:47;98466.31;;;-0.82;68.14
76128;BME280;64873;50.102;14.434;2023-01-19T09:01:13;98470.41;;;-0.79;68.98
76128;BME280;64873;50.102;14.434;2023-01-19T09:03:39;98473.19;;;-0.81;67.75
76128;BME280;64873;50.102;14.434;2023-01-19T09:06:06;98475.16;;;-0.66;66.95
76128;BME280;64873;50.102;14.434;2023-01-19T09:08:31;98465.00;;;-0.69;66.90
76128;BME280;64873;50.102;14.434;2023-01-19T09:10:57;98459.75;;;-0.69;67.02
76128;BME280;64873;50.102;14.434;2023-01-19T09:13:23;98462.03;;;-0.58;66.82
76128;BME280;64873;50.102;14.434;2023-01-19T09:15:49;98471.69;;;-0.50;66.59
76128;BME280;64873;50.102;14.434;2023-01-19T09:18:16;98454.66;;;-0.63;65.83
76128;BME280;64873;50.102;14.434;2023-01-19T09:20:44;98464.34;;;-0.63;65.92
76128;BME280;64873;50.102;14.434;2023-01-19T09:23:11;98448.09;;;-0.67;66.53
76128;BME280;64873;50.102;14.434;2023-01-19T09:25:38;98459.91;;;-0.46;66.19
76128;BME280;64873;50.102;14.434;2023-01-19T09:28:08;98469.31;;;-0.13;64.28
76128;BME280;64873;50.102;14.434;2023-01-19T09:30:36;98463.56;;;-0.08;64.10
76128;BME280;64873;50.102;14.434;2023-01-19T09:33:03;98461.75;;;-0.08;64.26
76128;BME280;64873;50.102;14.434;2023-01-19T09:35:33;98459.47;;;-0.11;65.15
76128;BME280;64873;50.102;14.434;2023-01-19T09:37:58;98457.00;;;-0.12;64.67
76128;BME280;64873;50.102;14.434;2023-01-19T09:40:24;98457.00;;;-0.12;65.09
76128;BME280;64873;50.102;14.434;2023-01-19T09:42:55;98456.69;;;-0.09;64.89
76128;BME280;64873;50.102;14.434;2023-01-19T09:45:33;98435.53;;;-0.16;63.28
76128;BME280;64873;50.102;14.434;2023-01-19T09:48:03;98442.06;;;-0.04;64.22
76128;BME280;64873;50.102;14.434;2023-01-19T09:50:34;98441.88;;;0.06;63.00
76128;BME280;64873;50.102;14.434;2023-01-19T09:53:10;98443.50;;;0.07;63.83
76128;BME280;64873;50.102;14.434;2023-01-19T09:55:39;98442.06;;;0.36;63.41
76128;BME280;64873;50.102;14.434;2023-01-19T09:58:12;98446.56;;;0.50;61.81
76128;BME280;64873;50.102;14.434;2023-01-19T10:00:41;98439.44;;;0.36;60.70
76128;BME280;64873;50.102;14.434;2023-01-19T10:03:14;98442.38;;;0.33;61.30
76128;BME280;64873;50.102;14.434;2023-01-19T10:05:51;98446.72;;;0.17;62.92
76128;BME280;64873;50.102;14.434;2023-01-19T10:08:42;98436.56;;;0.14;61.77
76128;BME280;64873;50.102;14.434;2023-01-19T10:11:36;98446.97;;;0.39;61.94
76128;BME280;64873;50.102;14.434;2023-01-19T10:14:12;98448.28;;;0.35;61.73
76128;BME280;64873;50.102;14.434;2023-01-19T10:19:34;98471.69;;;0.52;61.06
76128;BME280;64873;50.102;14.434;2023-01-19T10:24:47;98485.69;;;0.45;62.07
76128;BME280;64873;50.102;14.434;2023-01-19T10:27:17;98482.38;;;0.51;62.03
76128;BME280;64873;50.102;14.434;2023-01-19T10:29:43;98464.34;;;0.48;61.86
76128;BME280;64873;50.102;14.434;2023-01-19T10:32:13;98480.69;;;0.58;62.34
76128;BME280;64873;50.102;14.434;2023-01-19T10:34:41;98474.50;;;0.51;61.17
76128;BME280;64873;50.102;14.434;2023-01-19T10:39:46;98470.53;;;0.55;61.09
76128;BME280;64873;50.102;14.434;2023-01-19T10:42:16;98451.50;;;0.53;62.06
76128;BME280;64873;50.102;14.434;2023-01-19T10:44:42;98478.25;;;0.57;61.66
76128;BME280;64873;50.102;14.434;2023-01-19T10:47:20;98462.00;;;0.53;61.26
76128;BME280;64873;50.102;14.434;2023-01-19T10:49:47;98467.72;;;0.57;60.59
76128;BME280;64873;50.102;14.434;2023-01-19T10:54:50;98483.91;;;0.76;61.33
76128;BME280;64873;50.102;14.434;2023-01-19T10:57:31;98460.91;;;0.70;60.57
76128;BME280;64873;50.102;14.434;2023-01-19T11:00:00;98469.88;;;0.84;60.44
76128;BME280;64873;50.102;14.434;2023-01-19T11:02:30;98465.06;;;0.88;60.75
76128;BME280;64873;50.102;14.434;2023-01-19T11:05:20;98477.81;;;0.99;60.91
76128;BME280;64873;50.102;14.434;2023-01-19T11:07:46;98477.50;;;0.94;60.16
76128;BME280;64873;50.102;14.434;2023-01-19T11:12:42;98476.53;;;0.95;60.03
76128;BME280;64873;50.102;14.434;2023-01-19T11:15:14;98465.44;;;0.85;59.93
76128;BME280;64873;50.102;14.434;2023-01-19T11:17:43;98469.28;;;0.97;60.40
76128;BME280;64873;50.102;14.434;2023-01-19T11:20:21;98467.28;;;0.99;60.33
76128;BME280;64873;50.102;14.434;2023-01-19T11:22:48;98464.03;;;0.97;60.04
76128;BME280;64873;50.102;14.434;2023-01-19T11:25:29;98448.34;;;1.03;59.31
76128;BME280;64873;50.102;14.434;2023-01-19T11:27:56;98447.00;;;1.08;59.66
76128;BME280;64873;50.102;14.434;2023-01-19T11:30:24;98456.31;;;1.18;60.24
76128;BME280;64873;50.102;14.434;2023-01-19T11:32:50;98444.13;;;1.17;59.83
76128;BME280;64873;50.102;14.434;2023-01-19T11:35:37;98444.50;;;1.14;58.78
76128;BME280;64873;50.102;14.434;2023-01-19T11:40:38;98461.31;;;1.28;59.79
76128;BME280;64873;50.102;14.434;2023-01-19T11:43:04;98466.44;;;1.44;58.44
76128;BME280;64873;50.102;14.434;2023-01-19T11:45:31;98472.59;;;1.37;59.45
76128;BME280;64873;50.102;14.434;2023-01-19T11:48:02;98451.16;;;1.25;59.13
76128;BME280;64873;50.102;14.434;2023-01-19T11:50:32;98444.41;;;1.22;59.52
76128;BME280;64873;50.102;14.434;2023-01-19T11:56:13;98459.94;;;1.55;59.02
76128;BME280;64873;50.102;14.434;2023-01-19T11:58:20;98455.09;;;1.44;59.11
76128;BME280;64873;50.102;14.434;2023-01-19T12:00:55;98447.81;;;1.46;58.33
76128;BME280;64873;50.102;14.434;2023-01-19T12:03:27;98465.97;;;1.41;59.39
76128;BME280;64873;50.102;14.434;2023-01-19T12:05:59;98454.00;;;1.38;58.99
76128;BME280;64873;50.102;14.434;2023-01-19T12:08:34;98450.53;;;1.38;59.11
76128;BME280;64873;50.102;14.434;2023-01-19T12:11:01;98461.56;;;1.56;59.49
76128;BME280;64873;50.102;14.434;2023-01-19T12:13:28;98455.66;;;1.54;60.47
76128;BME280;64873;50.102;14.434;2023-01-19T12:18:43;98427.94;;;1.43;60.71
76128;BME280;64873;50.102;14.434;2023-01-19T12:21:09;98433.03;;;1.45;61.02
76128;BME280;64873;50.102;14.434;2023-01-19T12:28:46;98427.91;;;1.66;61.47
76128;BME280;64873;50.102;14.434;2023-01-19T12:31:15;98436.59;;;1.67;60.79
76128;BME280;64873;50.102;14.434;2023-01-19T12:33:41;98438.16;;;1.61;60.83
76128;BME280;64873;50.102;14.434;2023-01-19T12:39:17;98432.59;;;1.56;61.00
76128;BME280;64873;50.102;14.434;2023-01-19T12:41:44;98422.44;;;1.53;60.62
76128;BME280;64873;50.102;14.434;2023-01-19T12:46:53;98426.31;;;1.57;59.97
76128;BME280;64873;50.102;14.434;2023-01-19T12:49:26;98435.09;;;1.34;60.87
76128;BME280;64873;50.102;14.434;2023-01-19T12:52:54;98441.66;;;1.39;60.68
76128;BME280;64873;50.102;14.434;2023-01-19T12:57:50;98429.88;;;1.49;60.68
76128;BME280;64873;50.102;14.434;2023-01-19T13:02:48;98441.47;;;1.40;60.45
76128;BME280;64873;50.102;14.434;2023-01-19T13:18:44;98440.81;;;1.23;61.78
76128;BME280;64873;50.102;14.434;2023-01-19T13:21:13;98431.97;;;1.16;62.26
76128;BME280;64873;50.102;14.434;2023-01-19T13:23:53;98434.56;;;1.24;61.62
76128;BME280;64873;50.102;14.434;2023-01-19T13:27:01;98437.13;;;1.10;62.31
76128;BME280;64873;50.102;14.434;2023-01-19T13:29:39;98441.34;;;1.33;61.44
76128;BME280;64873;50.102;14.434;2023-01-19T13:32:14;98437.84;;;1.03;61.68
76128;BME280;64873;50.102;14.434;2023-01-19T13:34:44;98434.69;;;1.08;61.53
76128;BME280;64873;50.102;14.434;2023-01-19T13:37:18;98441.22;;;1.12;61.72
76128;BME280;64873;50.102;14.434;2023-01-19T13:39:45;98435.28;;;0.95;62.26
76128;BME280;64873;50.102;14.434;2023-01-19T13:42:38;98437.59;;;1.13;61.64
76128;BME280;64873;50.102;14.434;2023-01-19T13:47:51;98449.75;;;1.14;62.21
76128;BME280;64873;50.102;14.434;2023-01-19T13:50:19;98425.91;;;0.93;61.96
76128;BME280;64873;50.102;14.434;2023-01-19T13:52:45;98417.88;;;0.94;62.34
76128;BME280;64873;50.102;14.434;2023-01-19T13:55:12;98454.78;;;1.01;62.23
76128;BME280;64873;50.102;14.434;2023-01-19T13:57:41;98448.25;;;0.97;61.44
76128;BME280;64873;50.102;14.434;2023-01-19T14:10:32;98433.88;;;0.85;62.56
76128;BME280;64873;50.102;14.434;2023-01-19T14:13:03;98465.31;;;1.01;61.89
76128;BME280;64873;50.102;14.434;2023-01-19T14:15:31;98462.63;;;1.09;62.02
76128;BME280;64873;50.102;14.434;2023-01-19T14:18:30;98456.66;;;0.92;62.51
76128;BME280;64873;50.102;14.434;2023-01-19T14:20:59;98442.16;;;0.73;62.34
76128;BME280;64873;50.102;14.434;2023-01-19T14:23:48;98459.69;;;1.04;61.52
76128;BME280;64873;50.102;14.434;2023-01-19T14:29:24;98462.16;;;0.83;62.81